Time;durP1;ratioP1;P1;durP2;ratioP2;P2;SDS_P1;SDS_P2;PMS_P1;PMS_P2;Temp;Humidity;BMP_temperature;BMP_pressure;BME280_temperature;BME280_humidity;BME280_pressure;Samples;Min_cycle;Max_cycle;Signal;HPM_P1;HPM_P2
2022/11/14 00:02:17;;;;;;;40.38;23.38;;;7.60;99.90;;;;;;5109533;28;20401;-74
2022/11/14 00:04:46;;;;;;;36.90;23.03;;;7.60;99.90;;;;;;5130707;27;20407;-74
2022/11/14 00:07:13;;;;;;;34.55;22.95;;;7.60;99.90;;;;;;5131849;27;20405;-74
2022/11/14 00:09:41;;;;;;;36.83;22.42;;;7.60;99.90;;;;;;5131368;27;20399;-74
2022/11/14 00:12:08;;;;;;;37.37;22.80;;;7.60;99.90;;;;;;5130997;27;20403;-74
2022/11/14 00:14:33;;;;;;;36.85;23.70;;;7.60;99.90;;;;;;5125011;27;20423;-74
2022/11/14 00:16:59;;;;;;;38.10;24.13;;;7.60;99.90;;;;;;5131462;27;20395;-74
2022/11/14 00:19:25;;;;;;;36.70;24.33;;;7.60;99.90;;;;;;5125188;27;20392;-74
2022/11/14 00:21:51;;;;;;;39.42;25.33;;;7.60;99.90;;;;;;5112693;27;20396;-74
2022/11/14 00:24:17;;;;;;;40.07;26.17;;;7.60;99.90;;;;;;5130897;27;20973;-74
2022/11/14 00:26:43;;;;;;;39.00;25.33;;;7.70;99.90;;;;;;5123129;27;20444;-74
2022/11/14 00:29:13;;;;;;;42.25;26.42;;;7.70;99.90;;;;;;5111241;27;20414;-74
2022/11/14 00:31:39;;;;;;;42.85;26.90;;;7.70;99.90;;;;;;5117054;27;20428;-74
2022/11/14 00:34:05;;;;;;;39.67;27.20;;;7.70;99.90;;;;;;5109794;27;20467;-74
2022/11/14 00:36:31;;;;;;;41.10;27.88;;;7.70;99.90;;;;;;5109492;28;20401;-74
2022/11/14 00:38:57;;;;;;;41.03;27.77;;;7.70;99.90;;;;;;5130465;27;20451;-74
2022/11/14 00:41:22;;;;;;;42.90;29.00;;;7.70;99.90;;;;;;5130435;27;20471;-74
2022/11/14 00:43:48;;;;;;;45.03;29.00;;;7.70;99.90;;;;;;5130118;27;20935;-77
2022/11/14 00:46:14;;;;;;;42.45;28.52;;;7.70;99.90;;;;;;5117874;27;20423;-76
2022/11/14 00:48:40;;;;;;;42.27;28.87;;;7.70;99.90;;;;;;5091924;28;20408;-77
2022/11/14 00:51:06;;;;;;;44.17;29.48;;;7.70;99.90;;;;;;5103004;28;20412;-77
2022/11/14 00:53:31;;;;;;;43.67;29.02;;;7.70;99.90;;;;;;5105612;28;20401;-74
2022/11/14 00:55:57;;;;;;;44.53;30.00;;;7.70;99.90;;;;;;5107314;27;20406;-74
2022/11/14 00:58:22;;;;;;;43.38;30.48;;;7.70;99.90;;;;;;5130024;27;20436;-74
2022/11/14 01:00:48;;;;;;;43.40;31.37;;;7.70;99.90;;;;;;5130129;27;20813;-74
2022/11/14 01:03:14;;;;;;;46.70;32.22;;;7.70;99.90;;;;;;5129153;27;20812;-74
2022/11/14 01:05:48;;;;;;;46.72;31.85;;;7.60;99.90;;;;;;5130268;27;20769;-74
2022/11/14 01:08:15;;;;;;;49.63;33.50;;;7.60;99.90;;;;;;5109298;27;20716;-77
2022/11/14 01:10:43;;;;;;;50.38;33.97;;;7.60;99.90;;;;;;5109208;27;20415;-77
2022/11/14 01:13:09;;;;;;;48.47;33.53;;;7.60;99.90;;;;;;5121923;27;20458;-77
2022/11/14 01:15:46;;;;;;;47.63;32.03;;;7.50;99.90;;;;;;5123564;27;21139;-77
2022/11/14 01:18:15;;;;;;;49.75;32.80;;;7.50;99.90;;;;;;5108033;28;20526;-77
2022/11/14 01:20:42;;;;;;;52.23;33.90;;;7.50;99.90;;;;;;5100521;28;20918;-77
2022/11/14 01:23:09;;;;;;;53.22;33.97;;;7.50;99.90;;;;;;5110868;27;20403;-77
2022/11/14 01:25:37;;;;;;;50.60;32.40;;;7.50;99.90;;;;;;5130022;27;20760;-77
2022/11/14 01:28:14;;;;;;;49.63;32.85;;;7.50;99.90;;;;;;5117101;27;20448;-77
2022/11/14 01:30:40;;;;;;;48.17;31.90;;;7.50;99.90;;;;;;5127636;27;20418;-77
2022/11/14 01:33:06;;;;;;;50.15;33.75;;;7.50;99.90;;;;;;5129802;27;20496;-77
2022/11/14 01:35:33;;;;;;;50.72;34.10;;;7.50;99.90;;;;;;5126213;27;20430;-77
2022/11/14 01:37:59;;;;;;;51.63;33.75;;;7.50;99.90;;;;;;5091470;28;20440;-76
2022/11/14 01:40:25;;;;;;;49.63;31.98;;;7.50;99.90;;;;;;5112070;27;20484;-77
2022/11/14 01:43:10;;;;;;;51.65;32.90;;;7.50;99.90;;;;;;5129381;27;20395;-77
2022/11/14 01:45:59;;;;;;;54.03;33.58;;;7.50;99.90;;;;;;5123845;27;20415;-77
2022/11/14 01:48:30;;;;;;;51.00;32.58;;;7.50;99.90;;;;;;5117333;27;20403;-77
2022/11/14 01:51:04;;;;;;;51.33;31.38;;;7.50;99.90;;;;;;5126416;27;20391;-76
2022/11/14 01:53:30;;;;;;;50.55;32.28;;;7.50;99.90;;;;;;5097530;28;20441;-77
2022/11/14 01:55:59;;;;;;;50.40;31.70;;;7.50;99.90;;;;;;5125021;27;20398;-76
2022/11/14 01:58:27;;;;;;;52.05;33.28;;;7.50;99.90;;;;;;5129049;27;20473;-76
2022/11/14 02:00:54;;;;;;;52.67;32.20;;;7.50;99.90;;;;;;5128616;27;20390;-77
2022/11/14 02:03:20;;;;;;;51.30;33.35;;;7.50;99.90;;;;;;5109375;28;20403;-77
2022/11/14 02:05:47;;;;;;;52.87;33.40;;;7.40;99.90;;;;;;5105586;28;20400;-77
2022/11/14 02:08:14;;;;;;;54.87;33.40;;;7.40;99.90;;;;;;5100211;27;20764;-76
2022/11/14 02:10:40;;;;;;;52.95;32.75;;;7.50;99.90;;;;;;5105423;28;20407;-76
2022/11/14 02:13:05;;;;;;;51.22;33.90;;;7.50;99.90;;;;;;5100315;28;20426;-76
2022/11/14 02:15:32;;;;;;;51.33;33.25;;;7.50;99.90;;;;;;5092664;28;20426;-76
2022/11/14 02:17:58;;;;;;;55.20;33.88;;;7.50;99.90;;;;;;5106486;28;20408;-76
2022/11/14 02:20:27;;;;;;;52.88;32.92;;;7.40;99.90;;;;;;5126261;28;20493;-76
2022/11/14 02:22:53;;;;;;;55.75;33.55;;;7.50;99.90;;;;;;5127970;28;20403;-76
2022/11/14 02:25:19;;;;;;;53.83;33.70;;;7.40;99.90;;;;;;5127567;28;20406;-77
2022/11/14 02:27:45;;;;;;;55.92;33.72;;;7.40;99.90;;;;;;5088339;28;20396;-76
2022/11/14 02:30:14;;;;;;;56.90;34.75;;;7.40;99.90;;;;;;5108715;28;20806;-76
2022/11/14 02:32:40;;;;;;;53.63;33.50;;;7.40;99.90;;;;;;5116203;28;20488;-77
2022/11/14 02:35:06;;;;;;;53.72;33.03;;;7.40;99.90;;;;;;5119977;28;20521;-77
2022/11/14 02:37:31;;;;;;;51.97;32.58;;;7.40;99.90;;;;;;5088777;28;20404;-77
2022/11/14 02:39:57;;;;;;;54.47;32.97;;;7.40;99.90;;;;;;5106797;28;20399;-76
2022/11/14 02:42:23;;;;;;;52.95;32.13;;;7.40;99.90;;;;;;5100398;28;20412;-76
2022/11/14 02:44:49;;;;;;;54.55;32.80;;;7.40;99.90;;;;;;5092496;28;20407;-76
2022/11/14 02:47:14;;;;;;;53.87;33.17;;;7.40;99.90;;;;;;5125163;28;20413;-77
2022/11/14 02:49:40;;;;;;;54.23;33.37;;;7.40;99.90;;;;;;5109298;28;20402;-76
2022/11/14 02:52:05;;;;;;;53.38;33.13;;;7.40;99.90;;;;;;5093530;28;20447;-76
2022/11/14 02:54:31;;;;;;;52.27;33.67;;;7.40;99.90;;;;;;5117277;27;20430;-76
2022/11/14 02:56:57;;;;;;;56.28;33.90;;;7.50;99.90;;;;;;5114398;27;20403;-76
2022/11/14 02:59:22;;;;;;;55.57;34.80;;;7.40;99.90;;;;;;5127387;27;20408;-77
2022/11/14 03:01:48;;;;;;;51.88;33.53;;;7.50;99.90;;;;;;5112551;27;20393;-76
2022/11/14 03:04:13;;;;;;;54.53;34.73;;;7.60;99.90;;;;;;5127338;27;21021;-76
2022/11/14 03:06:39;;;;;;;55.90;36.50;;;7.50;99.90;;;;;;5132484;27;20398;-76
2022/11/14 03:09:05;;;;;;;54.87;35.97;;;7.60;99.90;;;;;;5131998;27;20407;-74
2022/11/14 03:11:30;;;;;;;56.13;37.78;;;7.60;99.90;;;;;;5131987;27;20447;-74
2022/11/14 03:13:56;;;;;;;55.87;36.93;;;7.60;99.90;;;;;;5096722;28;20460;-74
2022/11/14 03:16:21;;;;;;;57.67;37.95;;;7.60;99.90;;;;;;5113977;27;20402;-74
2022/11/14 03:18:47;;;;;;;57.88;39.20;;;7.60;99.90;;;;;;5113743;27;20391;-74
2022/11/14 03:21:15;;;;;;;58.23;37.03;;;7.60;99.90;;;;;;5113926;27;20391;-74
2022/11/14 03:23:42;;;;;;;56.22;35.42;;;7.60;99.90;;;;;;5132096;27;20864;-74
2022/11/14 03:26:09;;;;;;;51.97;35.50;;;7.60;99.90;;;;;;5110767;28;20400;-74
2022/11/14 03:28:36;;;;;;;51.45;33.95;;;7.60;99.90;;;;;;5095445;28;20457;-74
2022/11/14 03:31:02;;;;;;;53.42;35.33;;;7.60;99.90;;;;;;5122641;27;20398;-74
2022/11/14 03:33:27;;;;;;;51.57;34.40;;;7.60;99.90;;;;;;5131940;27;21007;-74
2022/11/14 03:35:53;;;;;;;51.87;33.90;;;7.60;99.90;;;;;;5129750;27;20399;-74
2022/11/14 03:38:23;;;;;;;53.80;34.08;;;7.60;99.90;;;;;;5094951;27;20487;-74
2022/11/14 03:40:50;;;;;;;51.92;33.53;;;7.60;99.90;;;;;;5110188;28;20401;-74
2022/11/14 03:43:17;;;;;;;53.00;34.25;;;7.60;99.90;;;;;;5110432;28;20438;-74
2022/11/14 03:45:43;;;;;;;51.33;33.90;;;7.60;99.90;;;;;;5106057;28;20752;-74
2022/11/14 03:48:09;;;;;;;54.35;34.72;;;7.60;99.90;;;;;;5095716;28;20430;-74
2022/11/14 03:50:35;;;;;;;48.27;33.43;;;7.60;99.90;;;;;;5099113;28;20438;-74
2022/11/14 03:53:00;;;;;;;47.33;33.17;;;7.60;99.90;;;;;;5110039;28;20483;-74
2022/11/14 03:55:26;;;;;;;49.53;33.30;;;7.60;99.90;;;;;;5107050;28;20464;-74
2022/11/14 03:57:52;;;;;;;46.23;33.37;;;7.60;99.90;;;;;;5103263;28;20485;-74
2022/11/14 04:00:18;;;;;;;48.43;32.87;;;7.60;99.90;;;;;;5106401;28;20492;-74
2022/11/14 04:02:44;;;;;;;47.90;32.30;;;7.50;99.90;;;;;;5102898;28;20779;-74
2022/11/14 04:05:09;;;;;;;50.28;33.92;;;7.50;99.90;;;;;;5101991;28;20495;-74
2022/11/14 04:07:35;;;;;;;48.43;32.97;;;7.50;99.90;;;;;;5110203;28;21529;-74
2022/11/14 04:10:01;;;;;;;47.07;33.00;;;7.50;99.90;;;;;;5110716;28;20400;-74
2022/11/14 04:12:26;;;;;;;47.60;32.63;;;7.50;99.90;;;;;;5104850;28;20873;-74
2022/11/14 04:14:52;;;;;;;47.17;32.43;;;7.50;99.90;;;;;;5103121;28;20525;-74
2022/11/14 04:17:18;;;;;;;47.20;32.65;;;7.40;99.90;;;;;;5104666;28;20425;-74
2022/11/14 04:19:43;;;;;;;44.97;31.53;;;7.40;99.90;;;;;;5097901;28;20396;-74
2022/11/14 04:22:09;;;;;;;47.20;32.30;;;7.40;99.90;;;;;;5096900;28;20755;-74
2022/11/14 04:24:34;;;;;;;47.27;32.43;;;7.40;99.90;;;;;;5110673;28;20392;-74
2022/11/14 04:27:00;;;;;;;49.23;32.77;;;7.40;99.90;;;;;;5098788;28;20445;-74
2022/11/14 04:29:25;;;;;;;46.67;32.63;;;7.40;99.90;;;;;;5072348;28;20973;-74
2022/11/14 04:31:51;;;;;;;47.83;32.53;;;7.30;99.90;;;;;;5108942;28;20438;-74
2022/11/14 04:34:17;;;;;;;46.22;32.30;;;7.30;99.90;;;;;;5101466;28;20434;-74
2022/11/14 04:36:42;;;;;;;46.97;32.37;;;7.30;99.90;;;;;;5090560;28;20495;-74
2022/11/14 04:39:08;;;;;;;47.95;32.60;;;7.30;99.90;;;;;;5071591;28;20402;-74
2022/11/14 04:41:33;;;;;;;47.78;31.98;;;7.30;99.90;;;;;;5072151;28;20410;-74
2022/11/14 04:43:59;;;;;;;46.40;32.23;;;7.20;99.90;;;;;;5095288;28;20398;-74
2022/11/14 04:46:25;;;;;;;47.63;33.05;;;7.20;99.90;;;;;;5108073;28;20800;-74
2022/11/14 04:48:50;;;;;;;46.47;31.80;;;7.20;99.90;;;;;;5110411;28;20396;-74
2022/11/14 04:51:16;;;;;;;47.83;32.42;;;7.20;99.90;;;;;;5109523;28;20397;-74
2022/11/14 04:53:42;;;;;;;47.30;31.80;;;7.20;99.90;;;;;;5096755;28;20417;-74
2022/11/14 04:56:07;;;;;;;47.60;32.20;;;7.20;99.90;;;;;;5089339;28;20461;-74
2022/11/14 04:58:33;;;;;;;47.97;32.50;;;7.10;99.90;;;;;;5101361;28;20489;-73
2022/11/14 05:00:58;;;;;;;47.30;32.23;;;7.10;99.90;;;;;;5089939;28;20408;-74
2022/11/14 05:03:24;;;;;;;49.92;32.42;;;7.10;99.90;;;;;;5091271;28;20943;-74
2022/11/14 05:05:50;;;;;;;48.30;32.38;;;7.10;99.90;;;;;;5088852;28;20505;-74
2022/11/14 05:08:16;;;;;;;47.37;31.37;;;7.10;99.90;;;;;;5117023;27;20404;-74
2022/11/14 05:10:43;;;;;;;47.80;32.37;;;7.10;99.90;;;;;;5096078;28;20938;-74
2022/11/14 05:13:09;;;;;;;47.15;31.77;;;7.10;99.90;;;;;;5079415;28;20489;-74
2022/11/14 05:15:35;;;;;;;48.97;33.15;;;7.10;99.90;;;;;;5089670;28;20436;-74
2022/11/14 05:18:01;;;;;;;48.47;32.58;;;7.10;99.90;;;;;;5109535;28;20400;-74
2022/11/14 05:20:26;;;;;;;49.42;33.10;;;7.00;99.90;;;;;;5089622;28;20907;-74
2022/11/14 05:22:54;;;;;;;50.60;33.13;;;7.00;99.90;;;;;;5097768;28;20913;-74
2022/11/14 05:25:20;;;;;;;51.78;33.92;;;7.00;99.90;;;;;;5109147;28;20400;-74
2022/11/14 05:27:46;;;;;;;51.65;33.88;;;7.00;99.90;;;;;;5101805;28;20404;-74
2022/11/14 05:30:12;;;;;;;51.00;35.10;;;7.00;99.90;;;;;;5106707;28;20430;-74
2022/11/14 05:32:38;;;;;;;52.42;34.92;;;7.00;99.90;;;;;;5096655;28;20398;-74
2022/11/14 05:35:04;;;;;;;52.67;34.85;;;7.00;99.90;;;;;;5093074;28;20429;-74
2022/11/14 05:37:29;;;;;;;49.58;34.38;;;6.90;99.90;;;;;;5087695;28;20412;-74
2022/11/14 05:39:55;;;;;;;53.63;35.63;;;7.00;99.90;;;;;;5108202;27;21243;-73
2022/11/14 05:42:21;;;;;;;54.40;37.13;;;7.00;99.90;;;;;;5110129;27;20476;-74
2022/11/14 05:44:46;;;;;;;55.00;37.17;;;6.90;99.90;;;;;;5123759;27;20415;-76
2022/11/14 05:47:12;;;;;;;56.97;37.30;;;6.90;99.90;;;;;;5111549;27;20759;-76
2022/11/14 05:49:37;;;;;;;56.63;37.50;;;6.90;99.90;;;;;;5127153;27;20409;-76
2022/11/14 05:52:03;;;;;;;57.30;37.63;;;6.80;99.90;;;;;;5129226;27;20440;-76
2022/11/14 05:54:29;;;;;;;56.00;37.55;;;6.90;99.90;;;;;;5126674;27;20415;-77
2022/11/14 05:56:54;;;;;;;58.30;38.67;;;6.80;99.90;;;;;;5107085;28;20483;-76
2022/11/14 05:59:20;;;;;;;58.15;38.97;;;6.80;99.90;;;;;;5102107;27;20394;-76
2022/11/14 06:01:46;;;;;;;60.00;38.23;;;6.80;99.90;;;;;;5090459;28;20404;-77
2022/11/14 06:04:13;;;;;;;54.93;36.20;;;6.80;99.90;;;;;;5105620;28;20464;-76
2022/11/14 06:06:38;;;;;;;53.58;34.25;;;6.80;99.90;;;;;;5111892;28;20406;-77
2022/11/14 06:09:04;;;;;;;56.40;35.50;;;6.80;99.90;;;;;;5129050;27;20406;-76
2022/11/14 06:11:29;;;;;;;54.87;35.37;;;6.80;99.90;;;;;;5090590;28;20400;-77
2022/11/14 06:13:55;;;;;;;53.97;34.83;;;6.80;99.90;;;;;;5127285;28;20752;-76
2022/11/14 06:16:21;;;;;;;54.73;34.53;;;6.80;99.90;;;;;;5129226;28;20393;-76
2022/11/14 06:18:47;;;;;;;53.42;34.75;;;6.80;99.90;;;;;;5109629;28;20750;-76
2022/11/14 06:21:18;;;;;;;53.72;34.35;;;6.80;99.90;;;;;;5098679;28;20495;-76
2022/11/14 06:23:44;;;;;;;54.63;34.23;;;6.80;99.90;;;;;;5087168;28;20408;-74
2022/11/14 06:26:30;;;;;;;55.70;34.90;;;6.80;99.90;;;;;;5122253;27;20429;-74
2022/11/14 06:28:56;;;;;;;54.95;34.90;;;6.80;99.90;;;;;;5115347;27;20452;-74
2022/11/14 06:31:22;;;;;;;54.15;33.78;;;6.80;99.90;;;;;;5132982;27;20410;-73
2022/11/14 06:33:48;;;;;;;53.38;34.10;;;6.80;99.90;;;;;;5108053;27;20491;-74
2022/11/14 06:36:14;;;;;;;52.53;32.90;;;6.80;99.90;;;;;;5112124;27;20534;-74
2022/11/14 06:38:41;;;;;;;49.87;32.60;;;6.80;99.90;;;;;;5115140;27;21243;-74
2022/11/14 06:41:15;;;;;;;49.88;32.03;;;6.70;99.90;;;;;;5111897;27;20404;-74
2022/11/14 06:43:43;;;;;;;50.00;31.48;;;6.70;99.90;;;;;;5110570;28;20580;-74
2022/11/14 06:46:11;;;;;;;49.80;31.05;;;6.70;99.90;;;;;;5095394;27;20896;-74
2022/11/14 06:48:37;;;;;;;51.25;32.33;;;6.70;99.90;;;;;;5100525;28;20404;-73
2022/11/14 06:51:04;;;;;;;51.40;32.05;;;6.70;99.90;;;;;;5113650;27;20403;-73
2022/11/14 06:53:33;;;;;;;49.60;30.60;;;6.70;99.90;;;;;;5110131;27;20770;-76
2022/11/14 06:56:02;;;;;;;53.30;31.33;;;6.70;99.90;;;;;;5105283;27;20430;-75
2022/11/14 06:58:29;;;;;;;54.22;32.78;;;6.60;99.90;;;;;;5130360;27;20446;-76
2022/11/14 07:00:54;;;;;;;52.97;32.67;;;6.60;99.90;;;;;;5130238;27;20414;-75
2022/11/14 07:03:21;;;;;;;55.67;33.47;;;6.60;99.90;;;;;;5109428;28;20404;-75
2022/11/14 07:05:46;;;;;;;53.55;31.90;;;6.60;99.90;;;;;;5077099;28;20414;-75
2022/11/14 07:08:12;;;;;;;52.40;32.60;;;6.60;99.90;;;;;;5092515;28;20400;-75
2022/11/14 07:10:38;;;;;;;55.27;33.17;;;6.60;99.90;;;;;;5110595;27;20456;-75
2022/11/14 07:13:03;;;;;;;54.45;32.05;;;6.60;99.90;;;;;;5131420;27;20405;-75
2022/11/14 07:15:29;;;;;;;51.20;31.38;;;6.50;99.90;;;;;;5126180;27;20510;-75
2022/11/14 07:17:54;;;;;;;56.13;32.73;;;6.50;99.90;;;;;;5132046;27;20755;-75
2022/11/14 07:20:20;;;;;;;52.72;31.55;;;6.60;99.90;;;;;;5094256;27;20859;-75
2022/11/14 07:22:46;;;;;;;51.57;33.00;;;6.60;99.90;;;;;;5122123;27;20400;-75
2022/11/14 07:25:12;;;;;;;54.33;33.47;;;6.60;99.90;;;;;;5092411;28;20956;-76
2022/11/14 07:27:38;;;;;;;52.97;31.73;;;6.60;99.90;;;;;;5085270;28;20407;-75
2022/11/14 07:30:05;;;;;;;56.00;33.40;;;6.50;99.90;;;;;;5108465;27;20398;-75
2022/11/14 07:32:30;;;;;;;54.67;32.25;;;6.50;99.90;;;;;;5131033;27;20401;-75
2022/11/14 07:34:56;;;;;;;53.55;32.15;;;6.50;99.90;;;;;;5104510;27;20427;-75
2022/11/14 07:37:21;;;;;;;52.53;32.77;;;6.50;99.90;;;;;;5131008;27;20402;-75
2022/11/14 07:39:47;;;;;;;56.03;32.75;;;6.50;99.90;;;;;;5095175;27;20760;-75
2022/11/14 07:42:13;;;;;;;52.30;31.93;;;6.50;99.90;;;;;;5111687;27;20772;-75
2022/11/14 07:44:38;;;;;;;53.88;32.90;;;6.50;99.90;;;;;;5127811;27;20407;-76
2022/11/14 07:47:06;;;;;;;54.53;32.78;;;6.50;99.90;;;;;;5085973;27;20440;-75
2022/11/14 07:49:33;;;;;;;54.33;33.00;;;6.60;99.90;;;;;;5118003;27;20818;-75
2022/11/14 07:51:58;;;;;;;52.17;33.22;;;6.60;99.90;;;;;;5120261;27;21079;-75
2022/11/14 07:54:24;;;;;;;54.72;33.80;;;6.60;99.90;;;;;;5127839;27;20429;-75
2022/11/14 07:56:50;;;;;;;53.87;32.60;;;6.60;99.90;;;;;;5119996;27;20439;-75
2022/11/14 07:59:15;;;;;;;53.60;32.00;;;6.50;99.90;;;;;;5127514;27;20955;-76
2022/11/14 08:01:41;;;;;;;51.13;32.97;;;6.60;99.90;;;;;;5109146;28;20467;-75
2022/11/14 08:04:06;;;;;;;53.30;33.70;;;6.60;99.90;;;;;;5124439;27;20400;-75
2022/11/14 08:06:32;;;;;;;51.30;32.63;;;6.60;99.90;;;;;;5116157;27;20499;-75
2022/11/14 08:08:58;;;;;;;50.77;32.57;;;6.60;99.90;;;;;;5098722;27;20407;-75
2022/11/14 08:14:24;;;;;;;52.65;32.47;;;6.60;99.90;;;;;;5022123;28;20503;-75
2022/11/14 08:16:50;;;;;;;49.22;31.52;;;6.70;99.90;;;;;;5095275;27;20408;-75
2022/11/14 08:19:16;;;;;;;50.05;31.60;;;6.70;99.90;;;;;;5107766;28;20411;-75
2022/11/14 08:21:42;;;;;;;52.13;31.98;;;6.70;99.90;;;;;;5093460;27;20919;-75
2022/11/14 08:24:08;;;;;;;51.67;30.80;;;6.70;99.90;;;;;;5121852;27;20522;-75
2022/11/14 08:26:34;;;;;;;52.60;32.15;;;6.80;99.90;;;;;;5124536;27;20939;-75
2022/11/14 08:29:00;;;;;;;48.60;32.00;;;6.80;99.90;;;;;;5129981;27;20395;-75
2022/11/14 08:31:26;;;;;;;46.38;30.73;;;6.80;99.90;;;;;;5110809;27;20974;-76
2022/11/14 08:33:51;;;;;;;50.80;32.00;;;6.80;99.90;;;;;;5094199;27;20407;-75
2022/11/14 08:36:17;;;;;;;49.27;32.33;;;6.90;99.90;;;;;;5129120;27;20501;-75
2022/11/14 08:38:43;;;;;;;47.00;30.58;;;6.90;99.90;;;;;;5108137;28;20396;-76
2022/11/14 08:41:09;;;;;;;48.53;30.85;;;6.90;99.90;;;;;;5109058;27;20412;-75
2022/11/14 08:43:34;;;;;;;48.08;31.00;;;6.90;99.90;;;;;;5098832;28;20404;-75
2022/11/14 08:46:03;;;;;;;47.50;30.47;;;6.90;99.90;;;;;;5104358;27;20485;-76
2022/11/14 08:48:30;;;;;;;48.03;30.93;;;6.90;99.90;;;;;;5107403;28;20453;-75
2022/11/14 08:50:56;;;;;;;47.60;31.33;;;6.90;99.90;;;;;;5103244;27;20491;-75
2022/11/14 08:53:21;;;;;;;47.10;30.83;;;6.90;99.90;;;;;;5096965;28;20942;-75
2022/11/14 08:55:47;;;;;;;49.87;32.43;;;6.90;99.90;;;;;;5095911;27;20511;-75
2022/11/14 08:58:14;;;;;;;48.75;32.80;;;7.00;99.90;;;;;;5107466;28;21273;-75
2022/11/14 09:00:40;;;;;;;51.03;33.43;;;7.00;99.90;;;;;;5116988;27;20898;-75
2022/11/14 09:03:13;;;;;;;48.73;32.63;;;7.10;99.90;;;;;;5111250;27;20399;-75
2022/11/14 09:05:39;;;;;;;49.50;33.43;;;7.10;99.90;;;;;;5095890;28;20883;-75
2022/11/14 09:08:05;;;;;;;50.97;33.87;;;7.10;99.90;;;;;;5122937;27;20479;-75
2022/11/14 09:10:31;;;;;;;48.40;34.17;;;7.20;99.90;;;;;;5110987;27;20406;-75
2022/11/14 09:13:00;;;;;;;52.97;35.33;;;7.20;99.90;;;;;;5101306;28;20400;-75
2022/11/14 09:15:30;;;;;;;48.75;32.85;;;7.30;99.90;;;;;;5088905;28;20440;-75
2022/11/14 09:17:56;;;;;;;50.60;33.70;;;7.40;99.90;;;;;;5120507;27;20410;-75
2022/11/14 09:20:23;;;;;;;51.17;34.50;;;7.40;99.90;;;;;;5128888;27;20450;-75
2022/11/14 09:22:52;;;;;;;53.28;34.80;;;7.40;99.90;;;;;;5119745;27;20479;-75
2022/11/14 09:25:19;;;;;;;51.78;35.47;;;7.50;99.90;;;;;;5109891;28;20400;-75
2022/11/14 09:27:45;;;;;;;51.15;34.05;;;7.50;99.90;;;;;;5108421;27;20403;-75
2022/11/14 09:30:11;;;;;;;48.08;33.78;;;7.50;99.90;;;;;;5124816;27;20396;-75
2022/11/14 09:32:37;;;;;;;50.95;34.47;;;7.50;99.90;;;;;;5110212;27;20400;-75
2022/11/14 09:35:03;;;;;;;50.47;34.15;;;7.40;99.90;;;;;;5104328;27;20426;-75
2022/11/14 09:37:29;;;;;;;50.35;34.40;;;7.40;99.90;;;;;;5129926;27;20403;-75
2022/11/14 09:39:54;;;;;;;50.92;35.42;;;7.50;99.90;;;;;;5112405;27;20443;-75
2022/11/14 09:42:48;;;;;;;53.13;36.70;;;7.50;99.90;;;;;;5091804;28;20408;-75
2022/11/14 09:45:17;;;;;;;50.88;35.42;;;7.50;99.90;;;;;;5099650;27;20438;-75
2022/11/14 09:47:49;;;;;;;50.13;35.38;;;7.50;99.90;;;;;;5128715;27;20398;-75
2022/11/14 09:50:17;;;;;;;53.37;37.60;;;7.50;99.90;;;;;;5110240;27;20429;-75
2022/11/14 09:52:48;;;;;;;52.08;36.47;;;7.50;99.90;;;;;;5098039;27;20413;-75
2022/11/14 09:55:20;;;;;;;51.45;35.33;;;7.60;99.90;;;;;;5128962;27;20426;-75
2022/11/14 09:57:46;;;;;;;52.60;37.37;;;7.60;99.90;;;;;;5105308;28;20442;-75
2022/11/14 10:00:20;;;;;;;54.08;36.45;;;7.70;99.90;;;;;;5113384;27;20735;-75
2022/11/14 10:03:05;;;;;;;52.05;35.47;;;7.80;99.90;;;;;;5123459;27;20444;-76
2022/11/14 10:06:02;;;;;;;53.88;36.72;;;7.90;99.90;;;;;;5105860;28;21677;-75
2022/11/14 10:08:49;;;;;;;49.03;33.72;;;7.90;99.90;;;;;;5073327;28;20415;-75
2022/11/14 10:11:35;;;;;;;45.42;31.90;;;8.00;99.90;;;;;;5118204;27;20877;-75
2022/11/14 10:14:26;;;;;;;48.03;32.42;;;8.00;99.90;;;;;;5122704;27;20426;-75
2022/11/14 10:17:10;;;;;;;44.95;31.27;;;8.10;99.90;;;;;;5106617;28;20412;-75
2022/11/14 10:20:07;;;;;;;44.58;31.88;;;8.20;99.90;;;;;;5129275;28;20411;-75
2022/11/14 10:22:57;;;;;;;44.75;31.27;;;8.20;99.90;;;;;;5036093;28;20415;-75
2022/11/14 10:25:52;;;;;;;42.25;30.25;;;8.10;99.90;;;;;;5127304;28;20481;-75
2022/11/14 10:28:39;;;;;;;46.40;32.20;;;8.10;99.90;;;;;;5084729;28;20411;-75
2022/11/14 10:31:27;;;;;;;43.47;30.70;;;8.10;99.90;;;;;;5110618;28;20414;-75
2022/11/14 10:34:06;;;;;;;45.83;31.45;;;8.10;99.90;;;;;;5095690;28;20412;-75
2022/11/14 10:36:58;;;;;;;42.63;30.83;;;8.20;99.90;;;;;;5125517;28;20410;-75
2022/11/14 10:39:53;;;;;;;43.72;29.83;;;8.70;99.90;;;;;;5115433;28;20408;-75
2022/11/14 10:42:25;;;;;;;41.30;30.23;;;9.20;99.90;;;;;;5093580;28;20421;-75
2022/11/14 10:45:03;;;;;;;38.75;28.33;;;10.00;99.90;;;;;;5128445;28;20406;-76
2022/11/14 10:47:38;;;;;;;38.38;28.15;;;10.80;99.90;;;;;;5110649;28;20493;-76
2022/11/14 10:50:22;;;;;;;36.13;26.95;;;11.50;99.90;;;;;;5115802;28;20447;-76
2022/11/14 10:52:51;;;;;;;35.53;26.73;;;12.30;99.90;;;;;;5112242;28;20756;-76
2022/11/14 10:55:18;;;;;;;35.40;26.85;;;12.70;99.90;;;;;;5118155;28;20426;-76
2022/11/14 10:57:47;;;;;;;36.15;26.98;;;12.90;99.90;;;;;;5092110;28;20423;-76
2022/11/14 11:00:16;;;;;;;35.40;26.48;;;13.10;99.90;;;;;;5120214;28;20398;-75
2022/11/14 11:02:54;;;;;;;34.25;26.33;;;13.40;99.90;;;;;;5125181;28;20469;-76
2022/11/14 11:05:28;;;;;;;33.28;26.08;;;13.70;99.90;;;;;;5121994;28;20906;-76
2022/11/14 11:13:35;;;;;;;32.80;25.83;;;14.60;99.90;;;;;;5111684;27;20411;-76
2022/11/14 11:16:03;;;;;;;31.35;24.85;;;14.70;99.90;;;;;;5091478;28;20460;-76
2022/11/14 11:18:34;;;;;;;32.58;24.70;;;14.60;99.90;;;;;;5101118;27;20450;-76
2022/11/14 11:21:03;;;;;;;32.47;25.15;;;14.20;99.90;;;;;;5110606;28;20538;-76
2022/11/14 11:23:28;;;;;;;33.53;25.52;;;13.60;99.90;;;;;;5125297;27;20490;-76
2022/11/14 11:26:04;;;;;;;32.15;25.50;;;12.70;99.90;;;;;;5102404;27;20505;-76
2022/11/14 11:28:32;;;;;;;34.58;26.42;;;12.10;99.90;;;;;;5118650;27;20586;-75
2022/11/14 11:31:11;;;;;;;37.25;27.17;;;11.70;99.90;;;;;;5110059;28;20405;-76
2022/11/14 11:33:38;;;;;;;36.33;27.05;;;11.50;99.90;;;;;;5079852;28;21280;-73
2022/11/14 11:36:15;;;;;;;36.42;27.30;;;11.40;99.90;;;;;;5130420;27;20861;-74
2022/11/14 11:38:41;;;;;;;38.20;28.17;;;11.20;99.90;;;;;;5119415;27;20633;-74
2022/11/14 11:41:31;;;;;;;37.25;27.42;;;11.10;99.90;;;;;;5110821;27;20417;-74
2022/11/14 11:43:59;;;;;;;37.77;28.53;;;11.10;99.90;;;;;;5103708;28;20411;-74
2022/11/14 11:46:43;;;;;;;37.08;28.35;;;11.00;99.90;;;;;;5097429;27;20416;-74
2022/11/14 11:49:18;;;;;;;39.22;29.08;;;10.90;99.90;;;;;;5103352;27;20990;-74
2022/11/14 11:51:46;;;;;;;38.28;27.77;;;10.80;99.90;;;;;;5104933;28;20404;-73
2022/11/14 11:54:21;;;;;;;38.53;27.77;;;10.80;99.90;;;;;;5093875;27;20451;-74
2022/11/14 11:56:51;;;;;;;38.75;27.65;;;10.80;99.90;;;;;;5109198;28;20404;-74
2022/11/14 11:59:44;;;;;;;40.97;28.73;;;10.70;99.90;;;;;;5106024;28;20420;-74
2022/11/14 12:02:23;;;;;;;38.25;28.35;;;10.50;99.90;;;;;;5124907;27;20485;-74
2022/11/14 12:04:51;;;;;;;41.60;28.95;;;10.40;99.90;;;;;;5130670;27;20435;-74
2022/11/14 12:07:42;;;;;;;38.42;28.30;;;10.40;99.90;;;;;;5099128;28;20436;-74
2022/11/14 12:10:22;;;;;;;37.90;28.17;;;10.30;99.90;;;;;;5103552;27;20401;-74
2022/11/14 12:13:08;;;;;;;39.30;27.55;;;10.20;99.90;;;;;;5106794;28;20412;-74
2022/11/14 12:16:11;;;;;;;39.03;27.63;;;10.10;99.90;;;;;;5124263;27;20432;-74
2022/11/14 12:19:04;;;;;;;39.50;28.55;;;10.10;99.90;;;;;;5109100;27;20402;-74
2022/11/14 12:21:52;;;;;;;39.07;27.50;;;10.10;99.90;;;;;;5124824;27;20398;-73
2022/11/14 12:24:42;;;;;;;35.60;26.37;;;10.20;99.90;;;;;;5109992;28;20416;-73
2022/11/14 12:27:23;;;;;;;33.38;24.88;;;10.20;99.90;;;;;;5105718;28;20423;-73
2022/11/14 12:30:10;;;;;;;34.03;24.70;;;10.20;99.90;;;;;;5093351;27;20404;-74
2022/11/14 12:32:48;;;;;;;33.85;24.02;;;10.20;99.90;;;;;;5092467;28;20397;-74
2022/11/14 12:35:20;;;;;;;32.07;23.60;;;10.10;99.90;;;;;;5105847;28;20432;-73
2022/11/14 12:37:48;;;;;;;32.03;23.85;;;10.10;99.90;;;;;;5093095;28;20413;-74
2022/11/14 12:40:31;;;;;;;33.53;24.43;;;10.10;99.90;;;;;;5123114;27;20970;-74
2022/11/14 12:42:59;;;;;;;33.50;23.83;;;10.00;99.90;;;;;;5121932;27;20422;-74
2022/11/14 12:45:40;;;;;;;30.53;23.33;;;10.10;99.90;;;;;;5111172;27;20601;-74
2022/11/14 12:48:28;;;;;;;33.63;24.02;;;10.10;99.90;;;;;;5107936;28;20412;-74
2022/11/14 12:50:55;;;;;;;31.20;23.65;;;10.10;99.90;;;;;;5111016;27;20406;-74
2022/11/14 12:53:36;;;;;;;33.28;24.25;;;10.10;99.90;;;;;;5103967;28;20400;-74
2022/11/14 12:56:22;;;;;;;31.55;23.25;;;10.20;99.90;;;;;;5127791;27;20422;-74